sensor_id;sensor_type;location;lat;lon;timestamp;P1;durP1;ratioP1;P2;durP2;ratioP2
52210;SDS011;38179;52.756;6.906;2023-08-12T00:00:18;23.83;;;21.85;;
52210;SDS011;38179;52.756;6.906;2023-08-12T00:02:45;26.02;;;23.48;;
52210;SDS011;38179;52.756;6.906;2023-08-12T00:05:11;26.40;;;23.70;;
52210;SDS011;38179;52.756;6.906;2023-08-12T00:07:41;26.40;;;23.98;;
52210;SDS011;38179;52.756;6.906;2023-08-12T00:10:07;25.92;;;23.58;;
52210;SDS011;38179;52.756;6.906;2023-08-12T00:12:34;25.63;;;23.45;;
52210;SDS011;38179;52.756;6.906;2023-08-12T00:15:01;26.77;;;24.27;;
52210;SDS011;38179;52.756;6.906;2023-08-12T00:17:29;25.45;;;23.25;;
52210;SDS011;38179;52.756;6.906;2023-08-12T00:19:55;26.92;;;24.50;;
52210;SDS011;38179;52.756;6.906;2023-08-12T00:22:21;27.25;;;24.75;;
52210;SDS011;38179;52.756;6.906;2023-08-12T00:24:48;26.23;;;23.75;;
52210;SDS011;38179;52.756;6.906;2023-08-12T00:27:14;26.08;;;23.67;;
52210;SDS011;38179;52.756;6.906;2023-08-12T00:29:40;27.63;;;24.65;;
52210;SDS011;38179;52.756;6.906;2023-08-12T00:32:06;27.58;;;24.90;;
52210;SDS011;38179;52.756;6.906;2023-08-12T00:34:33;27.05;;;24.52;;
52210;SDS011;38179;52.756;6.906;2023-08-12T00:36:59;26.85;;;24.35;;
52210;SDS011;38179;52.756;6.906;2023-08-12T00:39:25;27.08;;;24.45;;
52210;SDS011;38179;52.756;6.906;2023-08-12T00:41:51;27.98;;;25.33;;
52210;SDS011;38179;52.756;6.906;2023-08-12T00:44:17;26.52;;;24.10;;
52210;SDS011;38179;52.756;6.906;2023-08-12T00:46:43;26.80;;;24.15;;
52210;SDS011;38179;52.756;6.906;2023-08-12T00:49:10;28.00;;;25.23;;
52210;SDS011;38179;52.756;6.906;2023-08-12T00:51:41;27.42;;;25.08;;
52210;SDS011;38179;52.756;6.906;2023-08-12T00:54:13;27.70;;;25.08;;
52210;SDS011;38179;52.756;6.906;2023-08-12T00:56:40;27.10;;;24.58;;
52210;SDS011;38179;52.756;6.906;2023-08-12T00:59:07;26.83;;;24.25;;
52210;SDS011;38179;52.756;6.906;2023-08-12T01:01:40;27.27;;;24.70;;
52210;SDS011;38179;52.756;6.906;2023-08-12T01:04:07;26.95;;;24.45;;
52210;SDS011;38179;52.756;6.906;2023-08-12T01:06:33;28.17;;;25.23;;
52210;SDS011;38179;52.756;6.906;2023-08-12T01:08:59;28.02;;;25.42;;
52210;SDS011;38179;52.756;6.906;2023-08-12T01:11:28;27.35;;;24.67;;
52210;SDS011;38179;52.756;6.906;2023-08-12T01:16:39;27.15;;;24.65;;
52210;SDS011;38179;52.756;6.906;2023-08-12T01:19:11;27.85;;;25.38;;
52210;SDS011;38179;52.756;6.906;2023-08-12T01:21:43;27.48;;;24.98;;
52210;SDS011;38179;52.756;6.906;2023-08-12T01:24:11;26.13;;;23.92;;
52210;SDS011;38179;52.756;6.906;2023-08-12T01:26:37;27.27;;;24.83;;
52210;SDS011;38179;52.756;6.906;2023-08-12T01:29:03;28.33;;;25.52;;
52210;SDS011;38179;52.756;6.906;2023-08-12T01:34:05;26.48;;;23.98;;
52210;SDS011;38179;52.756;6.906;2023-08-12T01:36:40;27.00;;;24.58;;
52210;SDS011;38179;52.756;6.906;2023-08-12T01:39:11;26.60;;;24.08;;
52210;SDS011;38179;52.756;6.906;2023-08-12T01:41:37;27.42;;;24.70;;
52210;SDS011;38179;52.756;6.906;2023-08-12T01:44:04;27.42;;;24.83;;
52210;SDS011;38179;52.756;6.906;2023-08-12T01:46:30;27.85;;;25.10;;
52210;SDS011;38179;52.756;6.906;2023-08-12T01:51:28;28.08;;;25.40;;
52210;SDS011;38179;52.756;6.906;2023-08-12T01:59:16;26.85;;;24.48;;
52210;SDS011;38179;52.756;6.906;2023-08-12T02:01:42;28.95;;;26.02;;
52210;SDS011;38179;52.756;6.906;2023-08-12T02:04:08;29.58;;;26.45;;
52210;SDS011;38179;52.756;6.906;2023-08-12T02:06:34;28.15;;;25.35;;
52210;SDS011;38179;52.756;6.906;2023-08-12T02:08:59;28.80;;;26.02;;
52210;SDS011;38179;52.756;6.906;2023-08-12T02:11:25;27.98;;;25.35;;
52210;SDS011;38179;52.756;6.906;2023-08-12T02:13:54;28.55;;;25.80;;
52210;SDS011;38179;52.756;6.906;2023-08-12T02:16:20;28.88;;;26.27;;
52210;SDS011;38179;52.756;6.906;2023-08-12T02:18:46;30.58;;;27.38;;
52210;SDS011;38179;52.756;6.906;2023-08-12T02:21:12;28.48;;;25.63;;
52210;SDS011;38179;52.756;6.906;2023-08-12T02:23:38;30.48;;;27.52;;
52210;SDS011;38179;52.756;6.906;2023-08-12T02:26:04;29.40;;;26.60;;
52210;SDS011;38179;52.756;6.906;2023-08-12T02:28:30;30.10;;;27.10;;
52210;SDS011;38179;52.756;6.906;2023-08-12T02:30:55;30.20;;;27.05;;
52210;SDS011;38179;52.756;6.906;2023-08-12T02:33:21;29.05;;;26.13;;
52210;SDS011;38179;52.756;6.906;2023-08-12T02:35:47;29.50;;;26.48;;
52210;SDS011;38179;52.756;6.906;2023-08-12T02:38:18;29.67;;;26.77;;
52210;SDS011;38179;52.756;6.906;2023-08-12T02:40:43;30.30;;;26.83;;
52210;SDS011;38179;52.756;6.906;2023-08-12T02:43:14;30.98;;;27.40;;
52210;SDS011;38179;52.756;6.906;2023-08-12T02:45:40;31.60;;;27.23;;
52210;SDS011;38179;52.756;6.906;2023-08-12T02:48:06;30.13;;;27.10;;
52210;SDS011;38179;52.756;6.906;2023-08-12T02:50:32;29.65;;;26.85;;
52210;SDS011;38179;52.756;6.906;2023-08-12T02:52:57;30.70;;;27.85;;
52210;SDS011;38179;52.756;6.906;2023-08-12T02:55:23;30.98;;;27.88;;
52210;SDS011;38179;52.756;6.906;2023-08-12T02:57:49;30.20;;;27.02;;
52210;SDS011;38179;52.756;6.906;2023-08-12T03:00:15;30.30;;;27.50;;
52210;SDS011;38179;52.756;6.906;2023-08-12T03:02:42;29.75;;;26.88;;
52210;SDS011;38179;52.756;6.906;2023-08-12T03:05:09;30.67;;;27.85;;
52210;SDS011;38179;52.756;6.906;2023-08-12T03:07:35;29.67;;;26.42;;
52210;SDS011;38179;52.756;6.906;2023-08-12T03:10:01;30.67;;;27.45;;
52210;SDS011;38179;52.756;6.906;2023-08-12T03:12:27;28.00;;;25.40;;
52210;SDS011;38179;52.756;6.906;2023-08-12T03:14:53;29.83;;;27.10;;
52210;SDS011;38179;52.756;6.906;2023-08-12T03:17:18;29.65;;;27.00;;
52210;SDS011;38179;52.756;6.906;2023-08-12T03:19:44;30.23;;;27.42;;
52210;SDS011;38179;52.756;6.906;2023-08-12T03:22:10;31.30;;;28.15;;
52210;SDS011;38179;52.756;6.906;2023-08-12T03:24:36;28.98;;;26.48;;
52210;SDS011;38179;52.756;6.906;2023-08-12T03:27:02;28.75;;;25.90;;
52210;SDS011;38179;52.756;6.906;2023-08-12T03:29:28;29.25;;;26.55;;
52210;SDS011;38179;52.756;6.906;2023-08-12T03:31:54;30.13;;;27.08;;
52210;SDS011;38179;52.756;6.906;2023-08-12T03:34:20;30.67;;;27.55;;
52210;SDS011;38179;52.756;6.906;2023-08-12T03:36:46;28.40;;;25.73;;
52210;SDS011;38179;52.756;6.906;2023-08-12T03:39:13;28.98;;;26.30;;
52210;SDS011;38179;52.756;6.906;2023-08-12T03:41:39;26.42;;;23.95;;
52210;SDS011;38179;52.756;6.906;2023-08-12T03:44:05;27.33;;;24.73;;
52210;SDS011;38179;52.756;6.906;2023-08-12T03:46:31;28.92;;;26.38;;
52210;SDS011;38179;52.756;6.906;2023-08-12T03:48:58;27.85;;;25.40;;
52210;SDS011;38179;52.756;6.906;2023-08-12T03:51:24;27.58;;;25.17;;
52210;SDS011;38179;52.756;6.906;2023-08-12T03:53:50;28.60;;;26.10;;
52210;SDS011;38179;52.756;6.906;2023-08-12T03:56:16;30.30;;;27.55;;
52210;SDS011;38179;52.756;6.906;2023-08-12T03:58:43;31.20;;;24.75;;
52210;SDS011;38179;52.756;6.906;2023-08-12T04:01:09;25.95;;;23.73;;
52210;SDS011;38179;52.756;6.906;2023-08-12T04:03:35;25.88;;;23.75;;
52210;SDS011;38179;52.756;6.906;2023-08-12T04:06:01;26.20;;;23.90;;
52210;SDS011;38179;52.756;6.906;2023-08-12T04:08:28;27.42;;;24.63;;
52210;SDS011;38179;52.756;6.906;2023-08-12T04:10:54;26.40;;;24.10;;
52210;SDS011;38179;52.756;6.906;2023-08-12T04:13:20;30.15;;;27.15;;
52210;SDS011;38179;52.756;6.906;2023-08-12T04:18:38;29.52;;;26.77;;
52210;SDS011;38179;52.756;6.906;2023-08-12T04:23:41;30.35;;;27.33;;
52210;SDS011;38179;52.756;6.906;2023-08-12T04:26:07;29.98;;;27.08;;
52210;SDS011;38179;52.756;6.906;2023-08-12T04:28:32;27.65;;;25.02;;
52210;SDS011;38179;52.756;6.906;2023-08-12T04:30:58;30.65;;;27.50;;
52210;SDS011;38179;52.756;6.906;2023-08-12T04:33:24;30.40;;;27.27;;
52210;SDS011;38179;52.756;6.906;2023-08-12T04:35:50;30.52;;;27.63;;
52210;SDS011;38179;52.756;6.906;2023-08-12T04:38:18;31.58;;;28.42;;
52210;SDS011;38179;52.756;6.906;2023-08-12T04:40:44;29.48;;;26.67;;
52210;SDS011;38179;52.756;6.906;2023-08-12T04:43:10;29.27;;;26.67;;
52210;SDS011;38179;52.756;6.906;2023-08-12T04:45:36;29.50;;;26.70;;
52210;SDS011;38179;52.756;6.906;2023-08-12T04:48:03;30.70;;;27.77;;
52210;SDS011;38179;52.756;6.906;2023-08-12T04:50:30;29.05;;;26.55;;
52210;SDS011;38179;52.756;6.906;2023-08-12T04:52:56;29.80;;;27.10;;
52210;SDS011;38179;52.756;6.906;2023-08-12T04:55:24;29.80;;;26.95;;
52210;SDS011;38179;52.756;6.906;2023-08-12T04:57:50;31.30;;;28.25;;
52210;SDS011;38179;52.756;6.906;2023-08-12T05:00:16;31.17;;;28.00;;
52210;SDS011;38179;52.756;6.906;2023-08-12T05:02:43;30.85;;;27.95;;
52210;SDS011;38179;52.756;6.906;2023-08-12T05:05:08;31.67;;;28.40;;
52210;SDS011;38179;52.756;6.906;2023-08-12T05:07:35;31.63;;;28.63;;
52210;SDS011;38179;52.756;6.906;2023-08-12T05:10:01;32.80;;;29.70;;
52210;SDS011;38179;52.756;6.906;2023-08-12T05:12:27;35.03;;;31.45;;
52210;SDS011;38179;52.756;6.906;2023-08-12T05:14:53;35.92;;;32.45;;
52210;SDS011;38179;52.756;6.906;2023-08-12T05:17:19;33.65;;;30.50;;
52210;SDS011;38179;52.756;6.906;2023-08-12T05:19:46;33.17;;;29.88;;
52210;SDS011;38179;52.756;6.906;2023-08-12T05:22:12;34.22;;;30.92;;
52210;SDS011;38179;52.756;6.906;2023-08-12T05:24:38;34.47;;;31.15;;
52210;SDS011;38179;52.756;6.906;2023-08-12T05:27:04;37.13;;;31.98;;
52210;SDS011;38179;52.756;6.906;2023-08-12T05:29:30;36.47;;;32.25;;
52210;SDS011;38179;52.756;6.906;2023-08-12T05:31:56;35.83;;;32.33;;
52210;SDS011;38179;52.756;6.906;2023-08-12T05:34:22;35.22;;;31.63;;
52210;SDS011;38179;52.756;6.906;2023-08-12T05:36:48;36.80;;;31.60;;
52210;SDS011;38179;52.756;6.906;2023-08-12T05:39:14;35.08;;;31.48;;
52210;SDS011;38179;52.756;6.906;2023-08-12T05:41:43;36.30;;;32.70;;
52210;SDS011;38179;52.756;6.906;2023-08-12T05:44:10;37.15;;;33.45;;
52210;SDS011;38179;52.756;6.906;2023-08-12T05:46:36;38.90;;;34.75;;
52210;SDS011;38179;52.756;6.906;2023-08-12T05:49:01;40.53;;;35.42;;
52210;SDS011;38179;52.756;6.906;2023-08-12T05:51:27;37.65;;;33.88;;
52210;SDS011;38179;52.756;6.906;2023-08-12T05:53:53;36.60;;;32.78;;
52210;SDS011;38179;52.756;6.906;2023-08-12T05:56:19;38.65;;;34.78;;
52210;SDS011;38179;52.756;6.906;2023-08-12T05:58:45;36.75;;;33.00;;
52210;SDS011;38179;52.756;6.906;2023-08-12T06:01:11;37.28;;;33.35;;
52210;SDS011;38179;52.756;6.906;2023-08-12T06:03:37;36.75;;;33.20;;
52210;SDS011;38179;52.756;6.906;2023-08-12T06:06:03;36.05;;;32.28;;
52210;SDS011;38179;52.756;6.906;2023-08-12T06:08:30;38.38;;;34.45;;
52210;SDS011;38179;52.756;6.906;2023-08-12T06:10:56;41.45;;;35.08;;
52210;SDS011;38179;52.756;6.906;2023-08-12T06:13:22;37.15;;;33.42;;
52210;SDS011;38179;52.756;6.906;2023-08-12T06:15:48;41.20;;;36.45;;
52210;SDS011;38179;52.756;6.906;2023-08-12T06:18:14;43.42;;;38.95;;
52210;SDS011;38179;52.756;6.906;2023-08-12T06:20:40;44.03;;;37.58;;
52210;SDS011;38179;52.756;6.906;2023-08-12T06:23:06;42.88;;;38.35;;
52210;SDS011;38179;52.756;6.906;2023-08-12T06:25:32;42.92;;;38.42;;
52210;SDS011;38179;52.756;6.906;2023-08-12T06:27:58;42.13;;;37.60;;
52210;SDS011;38179;52.756;6.906;2023-08-12T06:30:24;41.15;;;36.88;;
52210;SDS011;38179;52.756;6.906;2023-08-12T06:32:50;42.05;;;37.63;;
52210;SDS011;38179;52.756;6.906;2023-08-12T06:35:16;43.92;;;39.63;;
52210;SDS011;38179;52.756;6.906;2023-08-12T06:37:42;46.50;;;37.95;;
52210;SDS011;38179;52.756;6.906;2023-08-12T06:42:43;42.20;;;37.80;;
52210;SDS011;38179;52.756;6.906;2023-08-12T06:45:09;42.35;;;37.95;;
52210;SDS011;38179;52.756;6.906;2023-08-12T06:47:35;41.25;;;37.13;;
52210;SDS011;38179;52.756;6.906;2023-08-12T06:50:01;40.83;;;36.72;;
52210;SDS011;38179;52.756;6.906;2023-08-12T06:52:27;41.78;;;37.63;;
52210;SDS011;38179;52.756;6.906;2023-08-12T06:54:53;44.80;;;38.53;;
52210;SDS011;38179;52.756;6.906;2023-08-12T06:57:22;42.03;;;37.72;;
52210;SDS011;38179;52.756;6.906;2023-08-12T06:59:48;41.00;;;36.63;;
52210;SDS011;38179;52.756;6.906;2023-08-12T07:02:14;42.47;;;37.90;;
52210;SDS011;38179;52.756;6.906;2023-08-12T07:04:40;42.78;;;37.50;;
52210;SDS011;38179;52.756;6.906;2023-08-12T07:07:06;41.72;;;37.30;;
52210;SDS011;38179;52.756;6.906;2023-08-12T07:09:32;42.58;;;38.50;;
52210;SDS011;38179;52.756;6.906;2023-08-12T07:11:58;42.35;;;38.10;;
52210;SDS011;38179;52.756;6.906;2023-08-12T07:14:24;40.92;;;36.63;;
52210;SDS011;38179;52.756;6.906;2023-08-12T07:16:50;38.10;;;34.50;;
52210;SDS011;38179;52.756;6.906;2023-08-12T07:19:16;37.65;;;33.85;;
52210;SDS011;38179;52.756;6.906;2023-08-12T07:21:42;40.63;;;36.30;;
52210;SDS011;38179;52.756;6.906;2023-08-12T07:24:08;40.72;;;36.60;;
52210;SDS011;38179;52.756;6.906;2023-08-12T07:26:37;41.28;;;35.28;;
52210;SDS011;38179;52.756;6.906;2023-08-12T07:29:03;39.40;;;35.55;;
52210;SDS011;38179;52.756;6.906;2023-08-12T07:31:29;38.13;;;34.33;;
52210;SDS011;38179;52.756;6.906;2023-08-12T07:33:57;36.72;;;33.15;;
52210;SDS011;38179;52.756;6.906;2023-08-12T07:36:22;36.78;;;33.30;;
52210;SDS011;38179;52.756;6.906;2023-08-12T07:38:48;36.05;;;32.47;;
52210;SDS011;38179;52.756;6.906;2023-08-12T07:41:14;34.75;;;31.40;;
52210;SDS011;38179;52.756;6.906;2023-08-12T07:43:40;36.05;;;32.65;;
52210;SDS011;38179;52.756;6.906;2023-08-12T07:46:06;35.22;;;32.03;;
52210;SDS011;38179;52.756;6.906;2023-08-12T07:48:32;35.13;;;31.70;;
52210;SDS011;38179;52.756;6.906;2023-08-12T07:50:58;35.97;;;32.45;;
52210;SDS011;38179;52.756;6.906;2023-08-12T07:53:25;35.97;;;32.40;;
52210;SDS011;38179;52.756;6.906;2023-08-12T07:55:51;35.05;;;31.60;;
52210;SDS011;38179;52.756;6.906;2023-08-12T08:00:54;34.92;;;31.63;;
52210;SDS011;38179;52.756;6.906;2023-08-12T08:03:20;35.42;;;31.85;;
52210;SDS011;38179;52.756;6.906;2023-08-12T08:05:46;34.45;;;30.98;;
52210;SDS011;38179;52.756;6.906;2023-08-12T08:08:13;34.15;;;30.83;;
52210;SDS011;38179;52.756;6.906;2023-08-12T08:10:39;34.03;;;30.85;;
52210;SDS011;38179;52.756;6.906;2023-08-12T08:13:06;34.22;;;30.90;;
52210;SDS011;38179;52.756;6.906;2023-08-12T08:15:35;34.45;;;31.05;;
52210;SDS011;38179;52.756;6.906;2023-08-12T08:18:01;33.80;;;30.63;;
52210;SDS011;38179;52.756;6.906;2023-08-12T08:20:29;33.53;;;30.23;;
52210;SDS011;38179;52.756;6.906;2023-08-12T08:22:55;34.13;;;30.75;;
52210;SDS011;38179;52.756;6.906;2023-08-12T08:25:21;33.55;;;30.20;;
52210;SDS011;38179;52.756;6.906;2023-08-12T08:27:48;34.17;;;31.05;;
52210;SDS011;38179;52.756;6.906;2023-08-12T08:30:14;32.60;;;29.50;;
52210;SDS011;38179;52.756;6.906;2023-08-12T08:32:41;33.33;;;30.27;;
52210;SDS011;38179;52.756;6.906;2023-08-12T08:35:07;33.70;;;30.33;;
52210;SDS011;38179;52.756;6.906;2023-08-12T08:37:33;31.90;;;28.80;;
52210;SDS011;38179;52.756;6.906;2023-08-12T08:39:59;33.80;;;30.70;;
52210;SDS011;38179;52.756;6.906;2023-08-12T08:42:25;32.58;;;29.50;;
52210;SDS011;38179;52.756;6.906;2023-08-12T08:44:52;32.80;;;29.67;;
52210;SDS011;38179;52.756;6.906;2023-08-12T08:47:26;33.38;;;30.17;;
52210;SDS011;38179;52.756;6.906;2023-08-12T08:49:54;31.70;;;28.77;;
52210;SDS011;38179;52.756;6.906;2023-08-12T08:52:23;31.73;;;28.92;;
52210;SDS011;38179;52.756;6.906;2023-08-12T08:54:50;32.20;;;29.17;;
52210;SDS011;38179;52.756;6.906;2023-08-12T08:57:16;31.25;;;28.48;;
52210;SDS011;38179;52.756;6.906;2023-08-12T08:59:44;31.80;;;28.83;;
52210;SDS011;38179;52.756;6.906;2023-08-12T09:02:13;31.23;;;28.20;;
52210;SDS011;38179;52.756;6.906;2023-08-12T09:04:45;31.27;;;28.27;;
52210;SDS011;38179;52.756;6.906;2023-08-12T09:07:15;30.88;;;27.67;;
52210;SDS011;38179;52.756;6.906;2023-08-12T09:09:50;30.92;;;27.83;;
52210;SDS011;38179;52.756;6.906;2023-08-12T09:12:24;30.55;;;27.88;;
52210;SDS011;38179;52.756;6.906;2023-08-12T09:21:04;30.02;;;27.02;;
52210;SDS011;38179;52.756;6.906;2023-08-12T09:23:39;30.88;;;27.92;;
52210;SDS011;38179;52.756;6.906;2023-08-12T09:26:12;29.27;;;26.63;;
52210;SDS011;38179;52.756;6.906;2023-08-12T09:28:40;29.58;;;26.77;;
52210;SDS011;38179;52.756;6.906;2023-08-12T09:31:25;29.77;;;26.92;;
52210;SDS011;38179;52.756;6.906;2023-08-12T09:33:58;29.55;;;26.95;;
52210;SDS011;38179;52.756;6.906;2023-08-12T09:36:27;28.48;;;25.90;;
52210;SDS011;38179;52.756;6.906;2023-08-12T09:38:55;25.83;;;23.63;;
52210;SDS011;38179;52.756;6.906;2023-08-12T09:41:24;25.47;;;23.37;;
52210;SDS011;38179;52.756;6.906;2023-08-12T09:43:51;24.73;;;22.73;;
52210;SDS011;38179;52.756;6.906;2023-08-12T09:46:18;24.10;;;21.92;;
52210;SDS011;38179;52.756;6.906;2023-08-12T09:48:48;22.83;;;20.63;;
52210;SDS011;38179;52.756;6.906;2023-08-12T09:51:16;22.05;;;20.25;;
52210;SDS011;38179;52.756;6.906;2023-08-12T09:53:42;23.60;;;21.52;;
52210;SDS011;38179;52.756;6.906;2023-08-12T09:56:10;22.17;;;20.38;;
52210;SDS011;38179;52.756;6.906;2023-08-12T09:58:37;21.63;;;19.92;;
52210;SDS011;38179;52.756;6.906;2023-08-12T10:01:04;21.88;;;19.98;;
52210;SDS011;38179;52.756;6.906;2023-08-12T10:03:33;22.13;;;20.25;;
52210;SDS011;38179;52.756;6.906;2023-08-12T10:06:02;22.10;;;20.30;;
52210;SDS011;38179;52.756;6.906;2023-08-12T10:08:29;21.30;;;19.60;;
52210;SDS011;38179;52.756;6.906;2023-08-12T10:10:56;21.42;;;19.73;;
52210;SDS011;38179;52.756;6.906;2023-08-12T10:13:22;21.50;;;19.73;;
52210;SDS011;38179;52.756;6.906;2023-08-12T10:15:51;20.83;;;19.13;;
52210;SDS011;38179;52.756;6.906;2023-08-12T10:18:18;21.13;;;19.42;;
52210;SDS011;38179;52.756;6.906;2023-08-12T10:20:45;21.30;;;19.70;;
52210;SDS011;38179;52.756;6.906;2023-08-12T10:23:16;21.02;;;19.42;;
52210;SDS011;38179;52.756;6.906;2023-08-12T10:25:43;21.73;;;20.02;;
52210;SDS011;38179;52.756;6.906;2023-08-12T10:28:13;21.35;;;19.65;;
52210;SDS011;38179;52.756;6.906;2023-08-12T10:30:40;28.50;;;25.90;;
52210;SDS011;38179;52.756;6.906;2023-08-12T10:33:07;24.60;;;22.60;;
52210;SDS011;38179;52.756;6.906;2023-08-12T10:35:45;22.80;;;20.90;;
52210;SDS011;38179;52.756;6.906;2023-08-12T10:38:13;22.77;;;20.55;;
52210;SDS011;38179;52.756;6.906;2023-08-12T10:40:42;21.63;;;19.92;;
52210;SDS011;38179;52.756;6.906;2023-08-12T10:43:11;21.08;;;19.38;;
52210;SDS011;38179;52.756;6.906;2023-08-12T10:45:42;20.67;;;19.05;;
52210;SDS011;38179;52.756;6.906;2023-08-12T10:50:45;20.65;;;19.05;;
52210;SDS011;38179;52.756;6.906;2023-08-12T10:53:20;20.60;;;18.98;;
52210;SDS011;38179;52.756;6.906;2023-08-12T10:55:49;20.83;;;19.15;;
52210;SDS011;38179;52.756;6.906;2023-08-12T10:58:27;20.67;;;18.88;;
52210;SDS011;38179;52.756;6.906;2023-08-12T11:00:54;20.63;;;19.00;;
52210;SDS011;38179;52.756;6.906;2023-08-12T11:03:20;20.15;;;18.55;;
52210;SDS011;38179;52.756;6.906;2023-08-12T11:05:48;20.60;;;19.00;;
52210;SDS011;38179;52.756;6.906;2023-08-12T11:08:16;20.13;;;18.52;;
52210;SDS011;38179;52.756;6.906;2023-08-12T11:10:41;19.65;;;18.15;;
52210;SDS011;38179;52.756;6.906;2023-08-12T11:13:09;20.45;;;18.95;;
52210;SDS011;38179;52.756;6.906;2023-08-12T11:18:03;19.67;;;18.17;;
52210;SDS011;38179;52.756;6.906;2023-08-12T11:20:30;18.70;;;17.30;;
52210;SDS011;38179;52.756;6.906;2023-08-12T11:22:56;18.75;;;17.35;;
52210;SDS011;38179;52.756;6.906;2023-08-12T11:25:24;19.15;;;17.60;;
52210;SDS011;38179;52.756;6.906;2023-08-12T11:27:50;17.88;;;16.58;;
52210;SDS011;38179;52.756;6.906;2023-08-12T11:30:17;17.58;;;16.27;;
52210;SDS011;38179;52.756;6.906;2023-08-12T11:35:18;17.63;;;16.42;;
52210;SDS011;38179;52.756;6.906;2023-08-12T11:37:46;17.48;;;16.13;;
52210;SDS011;38179;52.756;6.906;2023-08-12T11:40:14;17.33;;;16.13;;
52210;SDS011;38179;52.756;6.906;2023-08-12T11:42:44;17.55;;;16.30;;
52210;SDS011;38179;52.756;6.906;2023-08-12T11:45:11;17.77;;;16.30;;
52210;SDS011;38179;52.756;6.906;2023-08-12T11:47:39;16.95;;;15.75;;
52210;SDS011;38179;52.756;6.906;2023-08-12T11:50:10;17.05;;;15.85;;
52210;SDS011;38179;52.756;6.906;2023-08-12T11:52:37;16.95;;;15.75;;
52210;SDS011;38179;52.756;6.906;2023-08-12T11:55:04;17.38;;;16.17;;
52210;SDS011;38179;52.756;6.906;2023-08-12T11:57:32;17.02;;;15.82;;
52210;SDS011;38179;52.756;6.906;2023-08-12T12:00:00;17.13;;;15.93;;
52210;SDS011;38179;52.756;6.906;2023-08-12T12:02:45;17.17;;;15.98;;
52210;SDS011;38179;52.756;6.906;2023-08-12T12:05:14;17.33;;;16.13;;
52210;SDS011;38179;52.756;6.906;2023-08-12T12:07:41;17.38;;;16.17;;
52210;SDS011;38179;52.756;6.906;2023-08-12T12:10:12;16.65;;;15.55;;
52210;SDS011;38179;52.756;6.906;2023-08-12T12:12:40;16.85;;;15.65;;
52210;SDS011;38179;52.756;6.906;2023-08-12T12:15:06;17.15;;;15.95;;
52210;SDS011;38179;52.756;6.906;2023-08-12T12:17:33;17.30;;;16.08;;
52210;SDS011;38179;52.756;6.906;2023-08-12T12:20:05;17.25;;;16.05;;
52210;SDS011;38179;52.756;6.906;2023-08-12T12:22:36;17.85;;;16.55;;
52210;SDS011;38179;52.756;6.906;2023-08-12T12:25:06;17.63;;;16.30;;
52210;SDS011;38179;52.756;6.906;2023-08-12T12:27:33;17.17;;;15.98;;
52210;SDS011;38179;52.756;6.906;2023-08-12T12:30:00;17.60;;;16.33;;
52210;SDS011;38179;52.756;6.906;2023-08-12T12:32:26;18.02;;;16.63;;
52210;SDS011;38179;52.756;6.906;2023-08-12T12:34:52;17.60;;;16.40;;
52210;SDS011;38179;52.756;6.906;2023-08-12T12:37:20;17.83;;;16.58;;
52210;SDS011;38179;52.756;6.906;2023-08-12T12:39:46;18.77;;;17.48;;
52210;SDS011;38179;52.756;6.906;2023-08-12T12:42:12;18.20;;;16.80;;
52210;SDS011;38179;52.756;6.906;2023-08-12T12:44:38;18.25;;;16.95;;
52210;SDS011;38179;52.756;6.906;2023-08-12T12:47:04;18.23;;;16.77;;
52210;SDS011;38179;52.756;6.906;2023-08-12T12:49:31;18.27;;;16.88;;
52210;SDS011;38179;52.756;6.906;2023-08-12T12:51:56;18.52;;;17.23;;
52210;SDS011;38179;52.756;6.906;2023-08-12T12:54:24;18.95;;;17.65;;
52210;SDS011;38179;52.756;6.906;2023-08-12T12:56:49;18.45;;;17.15;;
52210;SDS011;38179;52.756;6.906;2023-08-12T12:59:15;18.52;;;17.13;;
52210;SDS011;38179;52.756;6.906;2023-08-12T13:01:42;18.15;;;16.85;;
52210;SDS011;38179;52.756;6.906;2023-08-12T13:04:08;18.63;;;17.23;;
52210;SDS011;38179;52.756;6.906;2023-08-12T13:06:34;18.17;;;16.65;;
52210;SDS011;38179;52.756;6.906;2023-08-12T13:09:01;18.05;;;16.75;;
52210;SDS011;38179;52.756;6.906;2023-08-12T13:11:28;18.65;;;17.35;;
52210;SDS011;38179;52.756;6.906;2023-08-12T13:13:54;18.60;;;17.20;;
52210;SDS011;38179;52.756;6.906;2023-08-12T13:16:20;18.45;;;17.13;;
52210;SDS011;38179;52.756;6.906;2023-08-12T13:18:46;18.77;;;17.13;;
52210;SDS011;38179;52.756;6.906;2023-08-12T13:21:12;18.80;;;17.40;;
52210;SDS011;38179;52.756;6.906;2023-08-12T13:23:41;17.95;;;16.55;;
52210;SDS011;38179;52.756;6.906;2023-08-12T13:26:07;18.58;;;16.92;;
52210;SDS011;38179;52.756;6.906;2023-08-12T13:28:33;18.50;;;17.00;;
52210;SDS011;38179;52.756;6.906;2023-08-12T13:30:59;18.23;;;16.85;;
52210;SDS011;38179;52.756;6.906;2023-08-12T13:33:25;19.27;;;17.58;;
52210;SDS011;38179;52.756;6.906;2023-08-12T13:35:51;18.45;;;17.05;;
52210;SDS011;38179;52.756;6.906;2023-08-12T13:38:17;18.42;;;17.02;;
52210;SDS011;38179;52.756;6.906;2023-08-12T13:40:43;18.77;;;17.17;;
52210;SDS011;38179;52.756;6.906;2023-08-12T13:43:09;18.83;;;17.13;;
52210;SDS011;38179;52.756;6.906;2023-08-12T13:45:35;19.08;;;17.60;;
52210;SDS011;38179;52.756;6.906;2023-08-12T13:48:01;19.15;;;17.23;;
52210;SDS011;38179;52.756;6.906;2023-08-12T13:50:27;19.23;;;17.70;;
52210;SDS011;38179;52.756;6.906;2023-08-12T13:52:53;18.88;;;17.30;;
52210;SDS011;38179;52.756;6.906;2023-08-12T13:55:19;19.40;;;17.70;;
52210;SDS011;38179;52.756;6.906;2023-08-12T13:57:46;19.33;;;17.63;;
52210;SDS011;38179;52.756;6.906;2023-08-12T14:00:12;18.90;;;17.38;;
52210;SDS011;38179;52.756;6.906;2023-08-12T14:02:40;19.50;;;17.63;;
52210;SDS011;38179;52.756;6.906;2023-08-12T14:05:06;19.80;;;17.98;;
52210;SDS011;38179;52.756;6.906;2023-08-12T14:10:17;19.17;;;17.45;;
52210;SDS011;38179;52.756;6.906;2023-08-12T14:12:43;19.65;;;18.10;;
52210;SDS011;38179;52.756;6.906;2023-08-12T14:15:10;19.75;;;18.00;;
52210;SDS011;38179;52.756;6.906;2023-08-12T14:17:36;18.95;;;17.27;;
52210;SDS011;38179;52.756;6.906;2023-08-12T14:20:02;19.35;;;17.65;;
52210;SDS011;38179;52.756;6.906;2023-08-12T14:22:33;19.02;;;17.42;;
52210;SDS011;38179;52.756;6.906;2023-08-12T14:25:00;19.95;;;17.83;;
52210;SDS011;38179;52.756;6.906;2023-08-12T14:27:26;20.25;;;18.55;;
52210;SDS011;38179;52.756;6.906;2023-08-12T14:29:55;18.52;;;17.13;;
52210;SDS011;38179;52.756;6.906;2023-08-12T14:32:20;20.05;;;18.30;;
52210;SDS011;38179;52.756;6.906;2023-08-12T14:34:46;20.55;;;18.55;;
52210;SDS011;38179;52.756;6.906;2023-08-12T14:37:12;20.58;;;18.60;;
52210;SDS011;38179;52.756;6.906;2023-08-12T14:39:38;19.63;;;18.02;;
52210;SDS011;38179;52.756;6.906;2023-08-12T14:42:04;19.33;;;17.63;;
52210;SDS011;38179;52.756;6.906;2023-08-12T14:44:31;19.73;;;18.08;;
52210;SDS011;38179;52.756;6.906;2023-08-12T14:47:00;19.83;;;18.23;;
52210;SDS011;38179;52.756;6.906;2023-08-12T14:49:26;19.52;;;17.65;;
52210;SDS011;38179;52.756;6.906;2023-08-12T14:51:54;19.67;;;18.05;;
52210;SDS011;38179;52.756;6.906;2023-08-12T14:54:21;19.95;;;18.35;;
52210;SDS011;38179;52.756;6.906;2023-08-12T14:56:50;20.88;;;19.08;;
52210;SDS011;38179;52.756;6.906;2023-08-12T14:59:16;20.45;;;18.58;;